createdAt,value
2018-03-06T00:01:49.873Z,18.80
2018-03-06T00:04:18.761Z,19.80
2018-03-06T00:06:51.047Z,19.00
2018-03-06T00:09:19.159Z,19.87
2018-03-06T00:11:49.025Z,19.30
2018-03-06T00:14:18.024Z,20.40
2018-03-06T00:16:53.580Z,19.90
2018-03-06T00:19:24.319Z,19.93
2018-03-06T00:21:53.314Z,20.43
2018-03-06T00:24:26.896Z,18.23
2018-03-06T00:27:07.390Z,20.60
2018-03-06T00:29:37.474Z,19.63
2018-03-06T00:32:05.644Z,19.37
2018-03-06T00:34:33.758Z,19.37
2018-03-06T00:37:03.864Z,19.43
2018-03-06T00:39:45.065Z,22.00
2018-03-06T00:42:19.823Z,19.77
2018-03-06T00:44:47.931Z,20.07
2018-03-06T00:47:18.882Z,19.90
2018-03-06T00:49:53.210Z,18.97
2018-03-06T00:52:27.758Z,20.67
2018-03-06T00:55:01.454Z,20.77
2018-03-06T00:57:30.494Z,20.03
2018-03-06T01:02:54.214Z,19.47
2018-03-06T01:05:22.331Z,20.40
2018-03-06T01:10:51.678Z,19.93
2018-03-06T01:13:21.813Z,19.47
2018-03-06T01:16:03.636Z,20.50
2018-03-06T01:18:31.743Z,21.30
2018-03-06T01:20:59.879Z,20.50
2018-03-06T01:23:31.560Z,21.80
2018-03-06T01:26:08.011Z,22.87
2018-03-06T01:28:36.895Z,20.20
2018-03-06T01:31:05.033Z,20.27
2018-03-06T01:33:36.607Z,19.30
2018-03-06T01:36:13.033Z,20.97
2018-03-06T01:38:41.141Z,21.40
2018-03-06T01:41:16.436Z,20.90
2018-03-06T01:43:53.119Z,18.80
2018-03-06T01:46:32.139Z,20.33
2018-03-06T01:49:01.401Z,20.83
2018-03-06T01:51:44.971Z,22.57
2018-03-06T01:54:18.662Z,20.00
2018-03-06T01:56:47.678Z,21.63
2018-03-06T01:59:15.839Z,18.83
2018-03-06T02:01:47.967Z,20.20
2018-03-06T02:04:29.107Z,20.43
2018-03-06T02:06:59.232Z,20.80
2018-03-06T02:09:28.330Z,22.00
2018-03-06T02:11:58.423Z,22.80
2018-03-06T02:14:46.918Z,23.90
2018-03-06T02:17:15.032Z,22.30
2018-03-06T02:19:43.121Z,21.80
2018-03-06T02:22:26.508Z,22.13
2018-03-06T02:24:54.632Z,22.47
2018-03-06T02:27:28.852Z,22.57
2018-03-06T02:29:56.923Z,22.13
2018-03-06T02:32:37.896Z,23.20
2018-03-06T02:35:11.384Z,23.23
2018-03-06T02:37:40.561Z,22.00
2018-03-06T02:40:08.651Z,24.27
2018-03-06T02:42:37.784Z,23.67
2018-03-06T02:45:05.927Z,23.70
2018-03-06T02:47:40.174Z,24.90
2018-03-06T02:50:08.267Z,23.00
2018-03-06T02:53:02.102Z,23.37
2018-03-06T02:55:31.200Z,24.07
2018-03-06T02:57:59.311Z,24.07
2018-03-06T03:00:27.423Z,25.33
2018-03-06T03:02:57.551Z,24.07
2018-03-06T03:05:26.593Z,24.77
2018-03-06T03:08:05.215Z,24.00
2018-03-06T03:10:33.296Z,23.63
2018-03-06T03:13:05.950Z,23.40
2018-03-06T03:15:40.853Z,25.80
2018-03-06T03:18:08.933Z,25.40
2018-03-06T03:20:41.115Z,23.20
2018-03-06T03:23:09.220Z,25.47
2018-03-06T03:25:37.363Z,24.80
2018-03-06T03:28:06.426Z,25.10
2018-03-06T03:30:34.577Z,25.50
2018-03-06T03:33:16.053Z,24.37
2018-03-06T03:36:05.658Z,26.60
2018-03-06T03:38:33.724Z,25.83
2018-03-06T03:41:19.046Z,26.40
2018-03-06T03:43:50.388Z,26.87
2018-03-06T03:46:22.027Z,27.67
2018-03-06T03:48:52.090Z,28.13
2018-03-06T03:51:34.106Z,26.67
2018-03-06T03:54:07.230Z,26.70
2018-03-06T03:56:35.373Z,30.13
2018-03-06T03:59:05.403Z,27.17
2018-03-06T04:01:33.503Z,29.00
2018-03-06T04:04:03.518Z,28.70
2018-03-06T04:06:32.015Z,29.17
2018-03-06T04:09:07.554Z,30.07
2018-03-06T04:11:35.677Z,28.27
2018-03-06T04:14:20.683Z,30.90
2018-03-06T04:16:52.038Z,29.00
2018-03-06T04:19:20.151Z,28.87
2018-03-06T04:24:53.348Z,29.50
2018-03-06T04:27:28.911Z,28.30
2018-03-06T04:29:57.028Z,30.77
2018-03-06T04:32:26.051Z,28.43
2018-03-06T04:34:55.084Z,28.83
2018-03-06T04:37:29.843Z,32.67
2018-03-06T04:39:59.940Z,29.90
2018-03-06T04:42:48.507Z,30.27
2018-03-06T04:45:27.743Z,31.20
2018-03-06T04:47:55.842Z,32.13
2018-03-06T04:50:24.845Z,30.60
2018-03-06T04:52:52.993Z,31.07
2018-03-06T04:55:41.655Z,32.10
2018-03-06T04:58:21.032Z,31.17
2018-03-06T05:00:51.109Z,30.43
2018-03-06T05:03:19.227Z,34.57
2018-03-06T05:05:47.344Z,32.60
2018-03-06T05:08:19.430Z,33.00
2018-03-06T05:11:04.875Z,31.47
2018-03-06T05:13:37.194Z,32.30
2018-03-06T05:16:05.316Z,34.17
2018-03-06T05:18:45.531Z,32.97
2018-03-06T05:21:13.666Z,33.60
2018-03-06T05:23:49.075Z,33.33
2018-03-06T05:26:18.094Z,34.67
2018-03-06T05:28:47.122Z,35.20
2018-03-06T05:31:15.262Z,34.50
2018-03-06T05:33:44.196Z,37.07
2018-03-06T05:36:16.083Z,36.77
2018-03-06T05:38:44.166Z,34.60
2018-03-06T05:41:19.515Z,34.70
2018-03-06T05:43:48.656Z,36.17
2018-03-06T05:46:16.788Z,36.90
2018-03-06T05:48:45.827Z,34.87
2018-03-06T05:51:13.940Z,34.10
2018-03-06T05:53:42.062Z,36.13
2018-03-06T05:56:10.202Z,34.23
2018-03-06T05:58:39.345Z,35.00
2018-03-06T06:01:14.471Z,37.07
2018-03-06T06:03:53.309Z,34.70
2018-03-06T06:06:23.396Z,35.10
2018-03-06T06:09:06.406Z,37.57
2018-03-06T06:11:36.140Z,38.33
2018-03-06T06:14:10.241Z,38.20
2018-03-06T06:16:45.787Z,36.67
2018-03-06T06:19:19.094Z,39.07
2018-03-06T06:21:49.127Z,39.30
2018-03-06T06:24:21.286Z,39.90
2018-03-06T06:26:50.403Z,39.50
2018-03-06T06:29:18.512Z,38.70
2018-03-06T06:31:48.435Z,39.57
2018-03-06T06:34:17.378Z,39.70
2018-03-06T06:37:10.407Z,37.27
2018-03-06T06:39:40.838Z,39.17
2018-03-06T06:42:12.675Z,41.87
2018-03-06T06:44:42.785Z,42.10
2018-03-06T06:47:12.253Z,41.10
2018-03-06T06:49:41.589Z,43.27
2018-03-06T06:52:10.460Z,39.80
2018-03-06T06:54:38.607Z,41.33
2018-03-06T06:57:09.837Z,41.30
2018-03-06T06:59:39.695Z,39.87
2018-03-06T07:02:09.832Z,41.60
2018-03-06T07:04:38.020Z,40.13
2018-03-06T07:10:04.244Z,40.23
2018-03-06T07:12:33.130Z,40.97
2018-03-06T07:15:01.972Z,39.07
2018-03-06T07:17:30.105Z,38.70
2018-03-06T07:19:58.276Z,38.40
2018-03-06T07:22:26.547Z,40.73
2018-03-06T07:24:54.654Z,41.13
2018-03-06T07:27:22.780Z,38.90
2018-03-06T07:29:50.912Z,38.90
2018-03-06T07:32:20.020Z,39.10
2018-03-06T07:34:50.206Z,38.00
2018-03-06T07:37:20.302Z,37.37
2018-03-06T07:39:48.488Z,36.73
2018-03-06T07:42:16.616Z,36.07
2018-03-06T07:44:44.748Z,35.50
2018-03-06T07:47:12.894Z,35.40
2018-03-06T07:49:41.094Z,35.80
2018-03-06T07:52:09.243Z,36.40
2018-03-06T07:54:37.339Z,37.00
2018-03-06T07:57:06.327Z,36.30
2018-03-06T07:59:34.502Z,35.30
2018-03-06T08:02:04.010Z,33.90
2018-03-06T08:04:32.105Z,35.93
2018-03-06T08:07:02.804Z,35.30
2018-03-06T08:09:30.951Z,34.90
2018-03-06T08:11:59.085Z,34.33
2018-03-06T08:14:27.938Z,35.37
2018-03-06T08:16:58.034Z,34.37
2018-03-06T08:19:26.227Z,35.10
2018-03-06T08:21:54.415Z,34.60
2018-03-06T08:24:22.647Z,33.77
2018-03-06T08:26:50.744Z,34.13
2018-03-06T08:29:26.134Z,34.10
2018-03-06T08:31:54.404Z,33.70
2018-03-06T08:36:58.648Z,34.20
2018-03-06T08:39:27.866Z,33.63
2018-03-06T08:41:56.287Z,34.53
2018-03-06T08:44:31.497Z,34.60
2018-03-06T08:47:04.611Z,31.40
2018-03-06T08:49:32.794Z,34.07
2018-03-06T08:52:01.123Z,33.60
2018-03-06T08:54:32.760Z,35.10
2018-03-06T08:57:01.778Z,34.87
2018-03-06T08:59:29.900Z,33.60
2018-03-06T09:01:59.680Z,33.63
2018-03-06T09:04:32.434Z,34.00
2018-03-06T09:07:00.646Z,33.00
2018-03-06T09:09:31.981Z,31.20
2018-03-06T09:12:00.361Z,33.47
2018-03-06T09:14:28.531Z,33.73
2018-03-06T09:16:56.956Z,34.10
2018-03-06T09:19:27.328Z,33.47
2018-03-06T09:21:55.715Z,36.53
2018-03-06T09:24:23.925Z,33.13
2018-03-06T09:26:52.036Z,35.20
2018-03-06T09:29:20.342Z,35.80
2018-03-06T09:31:48.449Z,33.87
2018-03-06T09:34:16.622Z,34.50
2018-03-06T09:36:44.834Z,35.10
2018-03-06T09:39:15.439Z,34.13
2018-03-06T09:41:43.592Z,36.27
2018-03-06T09:44:11.889Z,35.00
2018-03-06T09:46:41.805Z,35.10
2018-03-06T09:49:11.028Z,35.33
2018-03-06T09:51:39.245Z,37.17
2018-03-06T09:54:07.453Z,33.97
2018-03-06T09:56:36.736Z,35.53
2018-03-06T09:59:04.965Z,37.73
2018-03-06T10:01:33.260Z,35.47
2018-03-06T10:04:01.412Z,35.90
2018-03-06T10:06:29.596Z,35.90
2018-03-06T10:08:58.304Z,35.20
2018-03-06T10:11:27.615Z,34.60
2018-03-06T10:13:55.858Z,34.20
2018-03-06T10:16:24.020Z,35.53
2018-03-06T10:18:53.182Z,34.47
2018-03-06T10:21:21.403Z,35.13
2018-03-06T10:23:51.266Z,35.57
2018-03-06T10:26:20.434Z,33.60
2018-03-06T10:28:48.572Z,34.50
2018-03-06T10:31:16.984Z,34.47
2018-03-06T10:33:45.587Z,35.77
2018-03-06T10:36:14.132Z,35.73
2018-03-06T10:38:42.369Z,37.10
2018-03-06T10:41:10.614Z,33.90
2018-03-06T10:43:38.728Z,38.37
2018-03-06T10:46:07.205Z,37.77
2018-03-06T10:48:35.497Z,37.57
2018-03-06T10:51:04.416Z,35.13
2018-03-06T10:53:33.572Z,34.93
2018-03-06T10:56:02.625Z,34.17
2018-03-06T10:58:30.909Z,33.87
2018-03-06T11:01:00.783Z,36.57
2018-03-06T11:03:32.662Z,33.47
2018-03-06T11:06:05.093Z,36.00
2018-03-06T11:14:03.528Z,34.30
2018-03-06T11:16:31.707Z,34.87
2018-03-06T11:19:00.866Z,35.53
2018-03-06T11:21:31.131Z,39.10
2018-03-06T11:23:59.224Z,35.77
2018-03-06T11:26:27.784Z,34.67
2018-03-06T11:28:55.877Z,33.57
2018-03-06T11:31:24.994Z,34.60
2018-03-06T11:34:00.729Z,35.17
2018-03-06T11:36:29.691Z,34.77
2018-03-06T11:38:57.852Z,34.17
2018-03-06T11:41:26.148Z,31.73
2018-03-06T11:43:55.348Z,37.60
2018-03-06T11:46:24.185Z,35.60
2018-03-06T11:49:05.468Z,34.60
2018-03-06T11:51:36.954Z,36.17
2018-03-06T11:56:41.465Z,33.37
2018-03-06T11:59:13.458Z,33.73
2018-03-06T12:01:42.665Z,32.50
2018-03-06T12:04:13.719Z,32.80
2018-03-06T12:06:42.302Z,32.33
2018-03-06T12:09:18.840Z,33.27
2018-03-06T12:11:50.047Z,30.90
2018-03-06T12:14:18.941Z,33.73
2018-03-06T12:16:47.774Z,32.47
2018-03-06T12:19:16.100Z,32.00
2018-03-06T12:21:44.382Z,32.70
2018-03-06T12:24:12.624Z,33.93
2018-03-06T12:26:41.140Z,33.47
2018-03-06T12:29:10.257Z,32.97
2018-03-06T12:31:38.907Z,33.30
2018-03-06T12:34:09.981Z,33.23
2018-03-06T12:36:39.068Z,31.13
2018-03-06T12:39:09.119Z,31.80
2018-03-06T12:41:38.524Z,31.70
2018-03-06T12:44:07.541Z,29.83
2018-03-06T12:46:37.264Z,32.20
2018-03-06T12:49:05.687Z,28.80
2018-03-06T12:51:33.965Z,29.33
2018-03-06T12:54:02.883Z,32.30
2018-03-06T12:56:30.975Z,32.60
2018-03-06T12:59:05.827Z,31.87
2018-03-06T13:01:35.077Z,30.80
2018-03-06T13:04:06.344Z,31.87
2018-03-06T13:06:36.176Z,30.97
2018-03-06T13:09:04.728Z,30.80
2018-03-06T13:11:34.385Z,32.43
2018-03-06T13:16:39.571Z,30.30
2018-03-06T13:19:11.851Z,31.63
2018-03-06T13:21:40.854Z,31.60
2018-03-06T13:24:14.302Z,29.30
2018-03-06T13:26:43.490Z,31.50
2018-03-06T13:29:13.252Z,33.07
2018-03-06T13:31:42.418Z,31.07
2018-03-06T13:34:12.152Z,30.80
2018-03-06T13:36:42.026Z,30.30
2018-03-06T13:41:44.904Z,31.57
2018-03-06T13:44:13.156Z,32.03
2018-03-06T13:46:41.245Z,29.13
2018-03-06T13:49:12.293Z,30.43
2018-03-06T13:51:40.595Z,31.00
2018-03-06T13:54:10.077Z,30.63
2018-03-06T13:56:39.240Z,30.73
2018-03-06T13:59:12.843Z,29.33
2018-03-06T14:01:41.973Z,28.07
2018-03-06T14:04:14.834Z,30.07
2018-03-06T14:06:43.112Z,27.70
2018-03-06T14:09:12.754Z,30.00
2018-03-06T14:11:42.459Z,30.93
2018-03-06T14:14:19.043Z,32.17
2018-03-06T14:16:50.528Z,29.33
2018-03-06T14:19:22.960Z,30.57
2018-03-06T14:21:51.907Z,30.00
2018-03-06T14:24:20.681Z,29.80
2018-03-06T14:26:49.749Z,31.43
2018-03-06T14:29:19.470Z,29.90
2018-03-06T14:34:30.743Z,29.60
2018-03-06T14:39:37.968Z,28.57
2018-03-06T14:45:15.907Z,28.20
2018-03-06T14:47:44.420Z,28.90
2018-03-06T14:50:14.634Z,28.17
2018-03-06T14:52:43.020Z,28.30
2018-03-06T14:55:11.934Z,28.73
2018-03-06T14:57:42.944Z,30.57
2018-03-06T15:00:16.008Z,28.87
2018-03-06T15:02:44.210Z,28.23
2018-03-06T15:05:20.158Z,28.93
2018-03-06T15:07:49.199Z,28.03
2018-03-06T15:10:17.357Z,29.80
2018-03-06T15:12:47.369Z,29.90
2018-03-06T15:15:15.514Z,27.47
2018-03-06T15:17:47.063Z,29.37
2018-03-06T15:22:47.929Z,27.77
2018-03-06T15:25:16.148Z,27.43
2018-03-06T15:27:53.979Z,26.67
2018-03-06T15:30:26.482Z,26.67
2018-03-06T15:33:02.248Z,28.70
2018-03-06T15:35:32.834Z,26.13
2018-03-06T15:40:39.773Z,29.50
2018-03-06T15:43:15.547Z,28.30
2018-03-06T15:45:43.844Z,28.00
2018-03-06T15:48:15.794Z,27.30
2018-03-06T15:50:53.761Z,27.97
2018-03-06T15:55:55.734Z,27.57
2018-03-06T15:58:24.087Z,26.77
2018-03-06T16:03:28.257Z,25.90
2018-03-06T16:06:02.484Z,25.63
2018-03-06T16:08:30.805Z,25.10
2018-03-06T16:11:01.075Z,25.13
2018-03-06T16:13:30.344Z,24.77
2018-03-06T16:16:15.236Z,24.20
2018-03-06T16:18:47.144Z,27.60
2018-03-06T16:21:17.399Z,25.57
2018-03-06T16:23:53.102Z,24.73
2018-03-06T16:26:23.508Z,25.77
2018-03-06T16:28:51.760Z,25.90
2018-03-06T16:31:26.824Z,28.10
2018-03-06T16:33:56.501Z,26.17
2018-03-06T16:36:25.504Z,25.80
2018-03-06T16:38:53.692Z,27.10
2018-03-06T16:41:25.821Z,27.73
2018-03-06T16:43:57.187Z,27.07
2018-03-06T16:46:26.367Z,26.40
2018-03-06T16:48:58.456Z,28.47
2018-03-06T16:51:27.022Z,29.30
2018-03-06T16:53:57.800Z,29.30
2018-03-06T16:56:26.804Z,29.13
2018-03-06T16:58:55.101Z,28.80
2018-03-06T17:01:23.314Z,29.63
2018-03-06T17:03:53.708Z,29.33
2018-03-06T17:06:21.932Z,28.67
2018-03-06T17:08:50.289Z,30.50
2018-03-06T17:11:30.067Z,30.30
2018-03-06T17:13:59.094Z,31.50
2018-03-06T17:16:27.668Z,30.13
2018-03-06T17:18:57.735Z,30.30
2018-03-06T17:21:26.032Z,28.20
2018-03-06T17:23:54.278Z,32.93
2018-03-06T17:26:23.719Z,29.37
2018-03-06T17:28:54.188Z,28.73
2018-03-06T17:31:22.379Z,31.47
2018-03-06T17:33:50.738Z,30.33
2018-03-06T17:36:18.929Z,33.10
2018-03-06T17:38:47.923Z,33.03
2018-03-06T17:41:16.964Z,32.30
2018-03-06T17:43:48.933Z,30.77
2018-03-06T17:46:17.050Z,30.37
2018-03-06T17:48:47.034Z,31.20
2018-03-06T17:51:15.240Z,29.73
2018-03-06T17:53:48.037Z,31.47
2018-03-06T17:56:20.612Z,33.03
2018-03-06T17:58:51.810Z,30.90
2018-03-06T18:01:19.931Z,34.07
2018-03-06T18:03:48.132Z,33.53
2018-03-06T18:06:16.278Z,31.23
2018-03-06T18:08:44.546Z,29.83
2018-03-06T18:11:12.651Z,30.90
2018-03-06T18:13:44.746Z,29.23
2018-03-06T18:16:13.782Z,29.17
2018-03-06T18:21:47.393Z,28.80
2018-03-06T18:24:29.717Z,29.20
2018-03-06T18:26:57.853Z,26.60
2018-03-06T18:29:28.525Z,28.53
2018-03-06T18:31:57.999Z,26.90
2018-03-06T18:34:27.112Z,27.03
2018-03-06T18:36:55.558Z,28.43
2018-03-06T18:39:27.732Z,27.97
2018-03-06T18:41:55.872Z,27.73
2018-03-06T18:44:24.945Z,26.90
2018-03-06T18:46:54.952Z,30.00
2018-03-06T18:49:23.071Z,29.80
2018-03-06T18:51:51.277Z,27.57
2018-03-06T18:54:19.486Z,29.17
2018-03-06T18:56:49.703Z,29.50
2018-03-06T18:59:17.919Z,29.83
2018-03-06T19:15:44.123Z,28.90
2018-03-06T19:18:12.362Z,29.90
2018-03-06T19:20:41.110Z,30.10
2018-03-06T19:23:12.104Z,29.30
2018-03-06T19:25:41.118Z,27.77
2018-03-06T19:28:09.985Z,29.57
2018-03-06T19:30:58.029Z,28.17
2018-03-06T19:33:30.841Z,28.63
2018-03-06T19:35:58.947Z,29.37
2018-03-06T19:38:28.073Z,29.27
2018-03-06T19:40:56.194Z,33.10
2018-03-06T19:43:26.982Z,28.77
2018-03-06T19:45:55.097Z,30.33
2018-03-06T19:48:24.286Z,28.30
2018-03-06T19:53:45.922Z,29.60
2018-03-06T19:56:17.178Z,30.60
2018-03-06T19:58:45.304Z,29.87
2018-03-06T20:01:15.462Z,28.33
2018-03-06T20:03:43.559Z,28.83
2018-03-06T20:06:12.591Z,28.50
2018-03-06T20:11:39.651Z,31.50
2018-03-06T20:14:07.786Z,28.90
2018-03-06T20:16:35.876Z,28.93
2018-03-06T20:22:12.293Z,29.87
2018-03-06T20:24:57.935Z,30.50
2018-03-06T20:27:26.426Z,30.37
2018-03-06T20:29:54.583Z,28.30
2018-03-06T20:32:28.365Z,27.63
2018-03-06T20:34:56.505Z,30.30
2018-03-06T20:37:24.721Z,31.47
2018-03-06T20:40:03.211Z,31.53
2018-03-06T20:42:32.255Z,30.37
2018-03-06T20:45:00.470Z,32.17
2018-03-06T20:47:28.841Z,31.90
2018-03-06T20:49:58.796Z,31.60
2018-03-06T20:52:27.015Z,33.80
2018-03-06T20:55:00.948Z,27.57
2018-03-06T20:57:30.008Z,32.57
2018-03-06T20:59:58.210Z,33.10
2018-03-06T21:02:27.391Z,30.50
2018-03-06T21:04:55.749Z,34.00
2018-03-06T21:07:24.088Z,32.13
2018-03-06T21:09:53.382Z,31.40
2018-03-06T21:12:22.395Z,34.60
2018-03-06T21:14:53.538Z,34.70
2018-03-06T21:17:21.640Z,35.43
2018-03-06T21:19:50.520Z,33.50
2018-03-06T21:22:19.717Z,33.33
2018-03-06T21:24:53.781Z,36.93
2018-03-06T21:32:03.712Z,37.37
2018-03-06T21:34:31.900Z,34.53
2018-03-06T21:37:11.426Z,36.17
2018-03-06T21:39:41.176Z,39.07
2018-03-06T21:42:09.327Z,39.00
2018-03-06T21:44:37.581Z,39.10
2018-03-06T21:47:05.807Z,40.80
2018-03-06T21:49:34.085Z,38.73
2018-03-06T21:52:02.281Z,40.90
2018-03-06T21:54:30.458Z,39.87
2018-03-06T21:56:59.301Z,40.23
2018-03-06T21:59:27.596Z,41.13
2018-03-06T22:01:56.553Z,39.60
2018-03-06T22:04:25.010Z,44.40
2018-03-06T22:06:53.200Z,38.93
2018-03-06T22:09:21.384Z,41.70
2018-03-06T22:11:49.609Z,41.67
2018-03-06T22:14:17.701Z,42.13
2018-03-06T22:16:48.047Z,41.33
2018-03-06T22:19:31.105Z,43.13
2018-03-06T22:22:02.220Z,41.47
2018-03-06T22:24:30.347Z,43.90
2018-03-06T22:26:58.533Z,42.93
2018-03-06T22:29:28.662Z,44.47
2018-03-06T22:31:56.845Z,44.20
2018-03-06T22:34:25.731Z,43.30
2018-03-06T22:37:00.230Z,45.03
2018-03-06T22:39:28.530Z,42.67
2018-03-06T22:41:57.735Z,43.47
2018-03-06T22:44:25.855Z,44.77
2018-03-06T22:46:53.979Z,43.87
2018-03-06T22:49:24.351Z,44.40
2018-03-06T22:51:53.813Z,44.33
2018-03-06T22:54:22.704Z,44.77
2018-03-06T22:56:50.980Z,41.83
2018-03-06T22:59:19.140Z,44.00
2018-03-06T23:01:47.273Z,45.77
2018-03-06T23:04:15.471Z,45.90
2018-03-06T23:06:43.646Z,45.67
2018-03-06T23:09:12.518Z,45.90
2018-03-06T23:11:41.738Z,44.07
2018-03-06T23:14:09.882Z,46.67
2018-03-06T23:16:38.806Z,46.87
2018-03-06T23:21:44.493Z,45.00
2018-03-06T23:24:12.616Z,44.37
2018-03-06T23:26:40.810Z,48.97
2018-03-06T23:29:09.055Z,46.53
2018-03-06T23:31:42.363Z,47.40
2018-03-06T23:34:11.387Z,43.53
2018-03-06T23:36:39.523Z,44.87
2018-03-06T23:39:11.504Z,45.43
2018-03-06T23:41:42.909Z,47.87
2018-03-06T23:44:11.061Z,48.10
2018-03-06T23:46:40.904Z,48.67
2018-03-06T23:49:09.904Z,45.63
2018-03-06T23:51:42.886Z,48.53
2018-03-06T23:54:11.085Z,50.10
2018-03-06T23:56:39.396Z,47.97
2018-03-06T23:59:13.076Z,48.90
